Time,TemperatureF,DewpointF,PressureIn,WindDirection,WindDirectionDegrees,WindSpeedMPH,WindSpeedGustMPH,Humidity,HourlyPrecipIn,Conditions,Clouds,dailyrainin,SoftwareType,DateUTC
2013-01-15 00:00:00,38.5,35.6,30.32,SE,135,0.7,1.1,89,0.05,,,0.00,WUHU216HW,2013-01-15 05:00:00,
2013-01-15 00:01:00,38.5,35.6,30.32,ESE,113,1.1,1.1,89,0.05,,,0.00,WUHU216HW,2013-01-15 05:01:00,
2013-01-15 00:06:00,38.3,35.6,30.31,SE,135,1.8,1.8,90,0.06,,,0.01,WUHU216HW,2013-01-15 05:06:00,
2013-01-15 00:11:00,38.3,35.6,30.31,ESE,113,0.7,1.8,90,0.06,,,0.01,WUHU216HW,2013-01-15 05:11:00,
2013-01-15 00:16:00,38.3,35.6,30.31,SE,135,0.0,1.8,90,0.05,,,0.01,WUHU216HW,2013-01-15 05:16:00,
2013-01-15 00:21:00,38.3,35.6,30.31,SE,135,0.0,0.9,90,0.05,,,0.01,WUHU216HW,2013-01-15 05:21:00,
2013-01-15 00:26:00,38.3,35.6,30.30,ENE,68,0.4,1.1,90,0.05,,,0.01,WUHU216HW,2013-01-15 05:26:00,
2013-01-15 00:31:00,38.3,35.6,30.30,ESE,113,0.2,1.1,90,0.06,,,0.02,WUHU216HW,2013-01-15 05:31:00,
2013-01-15 00:36:00,38.3,35.6,30.30,ESE,113,0.0,0.4,90,0.05,,,0.02,WUHU216HW,2013-01-15 05:36:00,
2013-01-15 00:41:00,38.3,35.6,30.30,ENE,68,0.9,1.1,90,0.04,,,0.02,WUHU216HW,2013-01-15 05:41:00,
2013-01-15 00:46:00,38.3,35.4,30.30,ESE,113,0.4,1.1,89,0.04,,,0.02,WUHU216HW,2013-01-15 05:46:00,
2013-01-15 00:51:00,38.2,35.2,30.30,ENE,68,1.8,2.2,89,0.04,,,0.03,WUHU216HW,2013-01-15 05:51:00,
2013-01-15 00:56:00,38.2,35.2,30.29,NE,45,1.1,2.2,89,0.03,,,0.03,WUHU216HW,2013-01-15 05:56:00,
2013-01-15 01:01:00,38.2,35.5,30.29,NE,45,1.8,2.2,90,0.03,,,0.03,WUHU216HW,2013-01-15 06:01:00,
2013-01-15 01:06:00,38.0,35.3,30.29,ENE,68,1.1,2.5,90,0.03,,,0.04,WUHU216HW,2013-01-15 06:06:00,
2013-01-15 01:11:00,37.8,35.1,30.27,ESE,113,2.2,2.5,90,0.03,,,0.04,WUHU216HW,2013-01-15 06:11:00,
2013-01-15 01:16:00,37.8,35.1,30.28,ENE,68,0.4,2.5,90,0.04,,,0.05,WUHU216HW,2013-01-15 06:16:00,
2013-01-15 01:21:00,37.8,35.1,30.29,NNE,23,0.4,2.2,90,0.04,,,0.05,WUHU216HW,2013-01-15 06:21:00,
2013-01-15 01:26:00,37.8,35.1,30.27,ESE,113,1.3,2.2,90,0.03,,,0.05,WUHU216HW,2013-01-15 06:26:00,
2013-01-15 01:31:00,37.8,35.1,30.28,North,0,0.4,2.2,90,0.03,,,0.05,WUHU216HW,2013-01-15 06:31:00,
2013-01-15 01:36:00,37.6,34.9,30.29,East,90,0.4,2.2,90,0.04,,,0.06,WUHU216HW,2013-01-15 06:36:00,
2013-01-15 01:41:00,37.6,35.2,30.29,North,0,0.2,1.1,91,0.04,,,0.06,WUHU216HW,2013-01-15 06:41:00,
2013-01-15 01:46:00,37.6,34.9,30.29,NNE,23,0.0,1.1,90,0.05,,,0.07,WUHU216HW,2013-01-15 06:46:00,
2013-01-15 01:51:00,37.4,34.7,30.30,NNE,23,0.2,1.3,90,0.04,,,0.07,WUHU216HW,2013-01-15 06:51:00,
2013-01-15 01:56:00,37.4,34.7,30.31,NNE,23,0.9,1.3,90,0.04,,,0.07,WUHU216HW,2013-01-15 06:56:00,
2013-01-15 02:01:00,37.4,34.5,30.30,NNE,23,0.4,1.6,89,0.03,,,0.07,WUHU216HW,2013-01-15 07:01:00,
2013-01-15 02:06:00,37.3,34.3,30.31,North,0,1.1,1.6,89,0.03,,,0.07,WUHU216HW,2013-01-15 07:06:00,
2013-01-15 02:11:00,37.3,34.3,30.31,NNW,338,1.3,1.6,89,0.02,,,0.07,WUHU216HW,2013-01-15 07:11:00,
2013-01-15 02:16:00,37.3,34.3,30.31,NE,45,0.9,1.6,89,0.02,,,0.07,WUHU216HW,2013-01-15 07:16:00,
2013-01-15 02:21:00,37.3,34.3,30.30,NNE,23,0.2,2.2,89,0.02,,,0.07,WUHU216HW,2013-01-15 07:21:00,
2013-01-15 02:26:00,37.3,34.3,30.31,North,0,0.4,2.2,89,0.02,,,0.07,WUHU216HW,2013-01-15 07:26:00,
2013-01-15 02:31:00,37.3,34.3,30.32,NNE,23,2.0,2.0,89,0.02,,,0.07,WUHU216HW,2013-01-15 07:31:00,
2013-01-15 02:36:00,37.3,34.3,30.31,North,0,0.4,2.5,89,0.01,,,0.07,WUHU216HW,2013-01-15 07:36:00,
2013-01-15 02:41:00,37.3,34.3,30.31,NNE,23,0.7,2.5,89,0.01,,,0.07,WUHU216HW,2013-01-15 07:41:00,
2013-01-15 02:46:00,37.1,34.1,30.31,North,0,0.4,1.8,89,0.00,,,0.07,WUHU216HW,2013-01-15 07:46:00,
2013-01-15 02:51:00,37.1,34.1,30.30,NE,45,2.5,2.5,89,0.00,,,0.07,WUHU216HW,2013-01-15 07:51:00,
2013-01-15 02:56:00,37.1,34.1,30.30,NE,45,1.3,2.9,89,0.00,,,0.07,WUHU216HW,2013-01-15 07:56:00,
2013-01-15 03:01:00,37.1,34.1,30.31,NNW,338,1.8,2.9,89,0.00,,,0.07,WUHU216HW,2013-01-15 08:01:00,
2013-01-15 03:06:00,37.1,34.1,30.31,ENE,68,0.9,1.8,89,0.00,,,0.07,WUHU216HW,2013-01-15 08:06:00,
2013-01-15 03:11:00,37.1,34.1,30.32,NE,45,0.2,1.8,89,0.00,,,0.07,WUHU216HW,2013-01-15 08:11:00,
2013-01-15 03:16:00,37.1,33.9,30.31,NNE,23,0.2,1.3,88,0.00,,,0.07,WUHU216HW,2013-01-15 08:16:00,
2013-01-15 03:21:00,37.1,33.9,30.32,West,270,0.0,0.4,88,0.00,,,0.07,WUHU216HW,2013-01-15 08:21:00,
2013-01-15 03:26:00,37.1,33.9,30.32,NNE,23,0.0,0.2,88,0.00,,,0.07,WUHU216HW,2013-01-15 08:26:00,
2013-01-15 03:31:00,37.1,33.9,30.32,NNE,23,0.0,0.2,88,0.00,,,0.07,WUHU216HW,2013-01-15 08:31:00,
2013-01-15 03:36:00,37.1,33.9,30.32,NE,45,0.4,0.4,88,0.00,,,0.07,WUHU216HW,2013-01-15 08:36:00,
2013-01-15 03:41:00,37.1,33.9,30.32,North,0,0.7,0.7,88,0.00,,,0.07,WUHU216HW,2013-01-15 08:41:00,
2013-01-15 03:46:00,37.1,33.9,30.32,NNE,23,0.2,0.7,88,0.00,,,0.07,WUHU216HW,2013-01-15 08:46:00,
2013-01-15 03:51:00,37.1,33.9,30.31,East,90,0.2,0.7,88,0.00,,,0.07,WUHU216HW,2013-01-15 08:51:00,
2013-01-15 03:56:00,37.1,33.9,30.30,SE,135,0.2,0.7,88,0.00,,,0.07,WUHU216HW,2013-01-15 08:56:00,
2013-01-15 04:01:00,37.1,34.1,30.30,SE,135,1.6,1.8,89,0.00,,,0.07,WUHU216HW,2013-01-15 09:01:00,
2013-01-15 04:06:00,37.1,34.1,30.30,SSE,158,0.2,2.2,89,0.00,,,0.07,WUHU216HW,2013-01-15 09:06:00,
2013-01-15 04:11:00,37.1,34.1,30.30,SSW,203,0.0,2.2,89,0.00,,,0.07,WUHU216HW,2013-01-15 09:11:00,
2013-01-15 04:16:00,37.1,34.1,30.29,SSW,203,0.4,0.7,89,0.00,,,0.07,WUHU216HW,2013-01-15 09:16:00,
2013-01-15 04:21:00,37.1,34.1,30.29,SSW,203,0.2,2.0,89,0.00,,,0.07,WUHU216HW,2013-01-15 09:21:00,
2013-01-15 04:26:00,37.1,34.1,30.29,ESE,113,0.4,2.0,89,0.00,,,0.07,WUHU216HW,2013-01-15 09:26:00,
2013-01-15 04:31:00,37.1,34.1,30.29,SSE,158,0.0,1.1,89,0.00,,,0.07,WUHU216HW,2013-01-15 09:31:00,
2013-01-15 04:36:00,37.1,34.1,30.30,SSW,203,0.0,0.9,89,0.00,,,0.07,WUHU216HW,2013-01-15 09:36:00,
2013-01-15 04:41:00,37.1,34.1,30.29,East,90,0.7,0.9,89,0.00,,,0.07,WUHU216HW,2013-01-15 09:41:00,
2013-01-15 04:46:00,37.1,34.1,30.29,NE,45,0.2,0.7,89,0.00,,,0.07,WUHU216HW,2013-01-15 09:46:00,
2013-01-15 04:51:00,37.1,34.1,30.29,NW,315,0.0,0.7,89,0.00,,,0.07,WUHU216HW,2013-01-15 09:51:00,
2013-01-15 04:56:00,37.1,34.1,30.30,WNW,293,0.0,0.4,89,0.00,,,0.07,WUHU216HW,2013-01-15 09:56:00,
2013-01-15 05:01:00,37.1,34.1,30.29,WNW,293,0.0,0.4,89,0.00,,,0.07,WUHU216HW,2013-01-15 10:01:00,
2013-01-15 05:06:00,37.1,34.1,30.29,NNE,23,0.0,0.4,89,0.00,,,0.07,WUHU216HW,2013-01-15 10:06:00,
2013-01-15 05:11:00,37.1,34.1,30.28,NNE,23,0.0,0.7,89,0.00,,,0.07,WUHU216HW,2013-01-15 10:11:00,
2013-01-15 05:16:00,37.1,34.1,30.28,North,0,0.2,0.7,89,0.00,,,0.07,WUHU216HW,2013-01-15 10:16:00,
2013-01-15 05:21:00,37.1,34.1,30.29,WSW,248,0.0,0.7,89,0.00,,,0.07,WUHU216HW,2013-01-15 10:21:00,
2013-01-15 05:26:00,37.1,34.1,30.29,WSW,248,0.2,0.7,89,0.00,,,0.07,WUHU216HW,2013-01-15 10:26:00,
2013-01-15 05:31:00,37.1,34.1,30.30,WSW,248,0.2,0.7,89,0.00,,,0.07,WUHU216HW,2013-01-15 10:31:00,
2013-01-15 05:36:00,37.1,34.1,30.30,SW,225,0.0,0.7,89,0.00,,,0.07,WUHU216HW,2013-01-15 10:36:00,
2013-01-15 05:41:00,37.1,34.1,30.30,SSW,203,0.0,0.2,89,0.00,,,0.07,WUHU216HW,2013-01-15 10:41:00,
2013-01-15 05:46:00,37.1,34.1,30.30,SSW,203,0.0,0.0,89,0.00,,,0.07,WUHU216HW,2013-01-15 10:46:00,
2013-01-15 05:51:00,37.1,34.1,30.30,SSW,203,0.0,0.0,89,0.00,,,0.07,WUHU216HW,2013-01-15 10:51:00,
2013-01-15 05:56:00,37.1,34.1,30.30,SSW,203,0.0,0.0,89,0.00,,,0.07,WUHU216HW,2013-01-15 10:56:00,
2013-01-15 06:01:00,37.1,34.1,30.30,SSW,203,0.0,0.0,89,0.00,,,0.07,WUHU216HW,2013-01-15 11:01:00,
2013-01-15 06:06:00,37.1,34.1,30.31,WSW,248,0.0,0.4,89,0.00,,,0.07,WUHU216HW,2013-01-15 11:06:00,
2013-01-15 06:11:00,36.9,33.9,30.31,NE,45,0.9,1.1,89,0.01,,,0.08,WUHU216HW,2013-01-15 11:11:00,
2013-01-15 06:16:00,36.9,34.2,30.32,ENE,68,0.4,2.9,90,0.01,,,0.08,WUHU216HW,2013-01-15 11:16:00,
2013-01-15 06:21:00,36.7,33.8,30.31,NNE,23,0.2,2.9,89,0.01,,,0.08,WUHU216HW,2013-01-15 11:21:00,
2013-01-15 06:26:00,36.7,33.8,30.32,North,0,0.2,1.8,89,0.01,,,0.08,WUHU216HW,2013-01-15 11:26:00,
2013-01-15 06:31:00,36.5,33.6,30.31,ENE,68,0.4,1.8,89,0.01,,,0.08,WUHU216HW,2013-01-15 11:31:00,
2013-01-15 06:36:00,36.5,33.6,30.31,ESE,113,0.7,1.3,89,0.01,,,0.08,WUHU216HW,2013-01-15 11:36:00,
2013-01-15 06:41:00,36.5,33.6,30.32,ESE,113,0.2,1.1,89,0.01,,,0.08,WUHU216HW,2013-01-15 11:41:00,
2013-01-15 06:46:00,36.5,33.6,30.32,ESE,113,0.0,0.7,89,0.01,,,0.08,WUHU216HW,2013-01-15 11:46:00,
2013-01-15 06:51:00,36.5,33.6,30.32,East,90,0.9,1.1,89,0.01,,,0.08,WUHU216HW,2013-01-15 11:51:00,
2013-01-15 06:56:00,36.4,33.4,30.32,ENE,68,1.1,1.6,89,0.01,,,0.08,WUHU216HW,2013-01-15 11:56:00,
2013-01-15 07:01:00,36.4,33.4,30.32,NE,45,0.2,1.6,89,0.01,,,0.08,WUHU216HW,2013-01-15 12:01:00,
2013-01-15 07:06:00,36.4,33.4,30.32,ESE,113,0.7,1.1,89,0.01,,,0.08,WUHU216HW,2013-01-15 12:06:00,
2013-01-15 07:11:00,36.4,33.4,30.33,SE,135,0.0,0.9,89,0.00,,,0.08,WUHU216HW,2013-01-15 12:11:00,
2013-01-15 07:16:00,36.5,33.8,30.34,West,270,0.0,1.1,90,0.00,,,0.08,WUHU216HW,2013-01-15 12:16:00,
2013-01-15 07:21:00,36.5,33.8,30.33,SSE,158,0.0,1.1,90,0.00,,,0.08,WUHU216HW,2013-01-15 12:21:00,
2013-01-15 07:26:00,36.5,33.8,30.34,SW,225,0.4,0.4,90,0.00,,,0.08,WUHU216HW,2013-01-15 12:26:00,
2013-01-15 07:31:00,36.5,33.8,30.34,SSE,158,0.2,0.4,90,0.00,,,0.08,WUHU216HW,2013-01-15 12:31:00,
2013-01-15 07:36:00,36.5,33.8,30.34,SSE,158,0.0,0.4,90,0.00,,,0.08,WUHU216HW,2013-01-15 12:36:00,
2013-01-15 07:41:00,36.7,34.0,30.35,WNW,293,0.4,0.4,90,0.00,,,0.08,WUHU216HW,2013-01-15 12:41:00,
2013-01-15 07:46:00,36.7,34.0,30.35,SW,225,0.0,0.4,90,0.00,,,0.08,WUHU216HW,2013-01-15 12:46:00,
2013-01-15 07:51:00,36.7,34.0,30.35,West,270,0.2,0.7,90,0.00,,,0.08,WUHU216HW,2013-01-15 12:51:00,
2013-01-15 07:56:00,36.7,34.0,30.35,SW,225,0.0,0.7,90,0.00,,,0.08,WUHU216HW,2013-01-15 12:56:00,
2013-01-15 08:01:00,36.7,34.0,30.36,West,270,0.2,0.9,90,0.00,,,0.08,WUHU216HW,2013-01-15 13:01:00,
2013-01-15 08:06:00,36.7,34.0,30.36,WSW,248,0.0,0.9,90,0.00,,,0.08,WUHU216HW,2013-01-15 13:06:00,
2013-01-15 08:11:00,36.9,34.2,30.36,SW,225,0.4,0.4,90,0.00,,,0.08,WUHU216HW,2013-01-15 13:11:00,
2013-01-15 08:16:00,36.7,34.0,30.37,SW,225,0.4,0.4,90,0.00,,,0.08,WUHU216HW,2013-01-15 13:16:00,
2013-01-15 08:21:00,36.9,34.2,30.37,South,180,0.0,0.4,90,0.00,,,0.08,WUHU216HW,2013-01-15 13:21:00,
2013-01-15 08:26:00,36.9,34.2,30.36,South,180,0.0,0.4,90,0.00,,,0.08,WUHU216HW,2013-01-15 13:26:00,
2013-01-15 08:31:00,36.9,34.2,30.37,South,180,0.0,0.4,90,0.00,,,0.08,WUHU216HW,2013-01-15 13:31:00,
2013-01-15 08:36:00,37.1,34.4,30.36,South,180,0.0,0.2,90,0.00,,,0.08,WUHU216HW,2013-01-15 13:36:00,
2013-01-15 08:41:00,37.1,34.4,30.36,SSE,158,0.0,0.4,90,0.00,,,0.08,WUHU216HW,2013-01-15 13:41:00,
2013-01-15 08:46:00,37.1,34.4,30.37,South,180,0.4,0.4,90,0.00,,,0.08,WUHU216HW,2013-01-15 13:46:00,
2013-01-15 08:51:00,37.1,34.4,30.36,ENE,68,0.4,0.4,90,0.00,,,0.08,WUHU216HW,2013-01-15 13:51:00,
2013-01-15 08:56:00,37.3,34.6,30.39,West,270,1.3,2.5,90,0.00,,,0.08,WUHU216HW,2013-01-15 13:56:00,
2013-01-15 09:01:00,37.1,34.7,30.38,West,270,0.0,2.5,91,0.00,,,0.08,WUHU216HW,2013-01-15 14:01:00,
2013-01-15 09:06:00,37.1,34.7,30.38,West,270,0.0,1.3,91,0.00,,,0.08,WUHU216HW,2013-01-15 14:06:00,
2013-01-15 09:11:00,37.3,34.8,30.38,SW,225,0.0,1.1,91,0.00,,,0.08,WUHU216HW,2013-01-15 14:11:00,
2013-01-15 09:16:00,37.3,34.8,30.38,SW,225,0.4,0.4,91,0.00,,,0.08,WUHU216HW,2013-01-15 14:16:00,
2013-01-15 09:21:00,37.4,35.0,30.39,WSW,248,0.4,0.9,91,0.00,,,0.08,WUHU216HW,2013-01-15 14:21:00,
2013-01-15 09:26:00,37.6,35.2,30.38,West,270,0.0,0.9,91,0.00,,,0.08,WUHU216HW,2013-01-15 14:26:00,
2013-01-15 09:31:00,37.6,35.2,30.38,West,270,0.9,1.1,91,0.00,,,0.08,WUHU216HW,2013-01-15 14:31:00,
2013-01-15 09:36:00,37.6,35.2,30.39,West,270,0.4,1.8,91,0.00,,,0.08,WUHU216HW,2013-01-15 14:36:00,
2013-01-15 09:41:00,37.6,35.2,30.39,West,270,0.7,1.8,91,0.00,,,0.08,WUHU216HW,2013-01-15 14:41:00,
2013-01-15 09:46:00,37.8,35.4,30.39,WSW,248,0.9,1.8,91,0.00,,,0.08,WUHU216HW,2013-01-15 14:46:00,
2013-01-15 09:51:00,37.8,35.4,30.38,West,270,0.2,1.3,91,0.00,,,0.08,WUHU216HW,2013-01-15 14:51:00,
2013-01-15 09:56:00,37.8,35.4,30.38,WSW,248,0.4,0.9,91,0.00,,,0.08,WUHU216HW,2013-01-15 14:56:00,
2013-01-15 10:01:00,37.8,35.4,30.38,SW,225,0.7,0.9,91,0.00,,,0.08,WUHU216HW,2013-01-15 15:01:00,
2013-01-15 10:06:00,37.8,35.4,30.39,NW,315,0.2,0.9,91,0.00,,,0.08,WUHU216HW,2013-01-15 15:06:00,
2013-01-15 10:11:00,37.8,35.1,30.39,WNW,293,0.0,0.9,90,0.00,,,0.08,WUHU216HW,2013-01-15 15:11:00,
2013-01-15 10:16:00,38.0,35.3,30.38,West,270,0.2,0.9,90,0.00,,,0.08,WUHU216HW,2013-01-15 15:16:00,
2013-01-15 10:21:00,38.0,35.3,30.38,SW,225,0.0,0.7,90,0.00,,,0.08,WUHU216HW,2013-01-15 15:21:00,
2013-01-15 10:26:00,38.3,35.6,30.38,SE,135,0.7,0.7,90,0.00,,,0.08,WUHU216HW,2013-01-15 15:26:00,
2013-01-15 10:31:00,38.5,35.8,30.38,West,270,0.7,0.7,90,0.00,,,0.08,WUHU216HW,2013-01-15 15:31:00,
2013-01-15 10:36:00,38.5,35.8,30.40,West,270,1.1,1.3,90,0.00,,,0.08,WUHU216HW,2013-01-15 15:36:00,
2013-01-15 10:41:00,38.5,35.8,30.39,ENE,68,0.2,1.6,90,0.00,,,0.08,WUHU216HW,2013-01-15 15:41:00,
2013-01-15 10:46:00,38.5,34.9,30.37,NE,45,1.8,2.2,87,0.00,,,0.08,WUHU216HW,2013-01-15 15:46:00,
2013-01-15 10:51:00,38.3,34.5,30.36,NNE,23,1.8,2.2,86,0.00,,,0.08,WUHU216HW,2013-01-15 15:51:00,
2013-01-15 10:56:00,38.5,34.9,30.38,NNE,23,0.9,2.0,87,0.00,,,0.08,WUHU216HW,2013-01-15 15:56:00,
2013-01-15 11:01:00,38.3,34.7,30.37,North,0,0.2,1.8,87,0.00,,,0.08,WUHU216HW,2013-01-15 16:01:00,
2013-01-15 11:06:00,38.3,34.7,30.38,NW,315,0.7,1.6,87,0.00,,,0.08,WUHU216HW,2013-01-15 16:06:00,
2013-01-15 11:11:00,38.2,34.9,30.38,West,270,1.6,1.8,88,0.00,,,0.08,WUHU216HW,2013-01-15 16:11:00,
2013-01-15 11:16:00,38.3,34.7,30.38,ENE,68,0.4,1.8,87,0.00,,,0.08,WUHU216HW,2013-01-15 16:16:00,
2013-01-15 11:21:00,38.5,34.9,30.37,North,0,0.2,1.1,87,0.00,,,0.08,WUHU216HW,2013-01-15 16:21:00,
2013-01-15 11:26:00,38.5,34.7,30.38,NNE,23,0.4,1.1,86,0.00,,,0.08,WUHU216HW,2013-01-15 16:26:00,
2013-01-15 11:31:00,38.5,34.7,30.36,East,90,1.8,1.8,86,0.00,,,0.08,WUHU216HW,2013-01-15 16:31:00,
2013-01-15 11:36:00,38.5,34.7,30.35,North,0,0.9,2.5,86,0.00,,,0.08,WUHU216HW,2013-01-15 16:36:00,
2013-01-15 11:41:00,38.5,34.4,30.36,NE,45,1.6,3.1,85,0.00,,,0.08,WUHU216HW,2013-01-15 16:41:00,
2013-01-15 11:46:00,38.5,34.4,30.35,NNE,23,1.3,3.1,85,0.00,,,0.08,WUHU216HW,2013-01-15 16:46:00,
2013-01-15 11:51:00,38.5,34.1,30.33,ENE,68,2.9,3.6,84,0.00,,,0.08,WUHU216HW,2013-01-15 16:51:00,
2013-01-15 11:56:00,38.7,34.3,30.34,North,0,0.2,3.6,84,0.00,,,0.08,WUHU216HW,2013-01-15 16:56:00,
2013-01-15 12:01:00,38.7,34.3,30.34,NNE,23,0.9,2.9,84,0.00,,,0.08,WUHU216HW,2013-01-15 17:01:00,
2013-01-15 12:06:00,38.5,34.1,30.34,North,0,0.4,2.5,84,0.00,,,0.08,WUHU216HW,2013-01-15 17:06:00,
2013-01-15 12:11:00,38.5,34.1,30.33,NE,45,0.4,2.9,84,0.00,,,0.08,WUHU216HW,2013-01-15 17:11:00,
2013-01-15 12:16:00,38.7,34.3,30.33,NNW,338,0.4,2.9,84,0.00,,,0.08,WUHU216HW,2013-01-15 17:16:00,
2013-01-15 12:21:00,38.9,34.7,30.35,ENE,68,0.4,1.8,85,0.00,,,0.08,WUHU216HW,2013-01-15 17:21:00,
2013-01-15 12:26:00,38.5,34.4,30.35,East,90,0.2,2.0,85,0.00,,,0.08,WUHU216HW,2013-01-15 17:26:00,
2013-01-15 12:31:00,38.5,34.1,30.33,NE,45,0.4,2.0,84,0.00,,,0.08,WUHU216HW,2013-01-15 17:31:00,
2013-01-15 12:36:00,38.5,34.1,30.32,ENE,68,0.4,1.8,84,0.00,,,0.08,WUHU216HW,2013-01-15 17:36:00,
2013-01-15 12:41:00,38.5,34.1,30.33,North,0,0.4,1.8,84,0.00,,,0.08,WUHU216HW,2013-01-15 17:41:00,
2013-01-15 12:46:00,38.7,34.3,30.33,North,0,0.0,1.1,84,0.00,,,0.08,WUHU216HW,2013-01-15 17:46:00,
2013-01-15 12:51:00,38.7,34.3,30.33,NNW,338,0.0,1.1,84,0.00,,,0.08,WUHU216HW,2013-01-15 17:51:00,
2013-01-15 12:56:00,38.7,34.3,30.32,North,0,0.0,1.6,84,0.00,,,0.08,WUHU216HW,2013-01-15 17:56:00,
2013-01-15 13:01:00,38.7,34.0,30.30,North,0,1.6,1.6,83,0.00,,,0.08,WUHU216HW,2013-01-15 18:01:00,
2013-01-15 13:06:00,38.7,34.3,30.31,North,0,1.1,1.8,84,0.00,,,0.08,WUHU216HW,2013-01-15 18:06:00,
2013-01-15 13:11:00,38.7,33.1,30.30,NE,45,1.1,3.1,80,0.00,,,0.08,WUHU216HW,2013-01-15 18:11:00,
2013-01-15 13:16:00,38.7,32.8,30.30,NE,45,2.2,3.8,79,0.00,,,0.08,WUHU216HW,2013-01-15 18:16:00,
2013-01-15 13:21:00,38.5,32.9,30.30,NE,45,1.8,3.8,80,0.00,,,0.08,WUHU216HW,2013-01-15 18:21:00,
2013-01-15 13:26:00,38.7,32.8,30.29,ENE,68,2.0,2.5,79,0.00,,,0.08,WUHU216HW,2013-01-15 18:26:00,
2013-01-15 13:31:00,38.7,32.8,30.29,ENE,68,1.8,2.5,79,0.00,,,0.08,WUHU216HW,2013-01-15 18:31:00,
2013-01-15 13:36:00,38.9,32.9,30.29,NE,45,2.5,3.6,79,0.00,,,0.08,WUHU216HW,2013-01-15 18:36:00,
2013-01-15 13:41:00,38.9,32.9,30.29,NNE,23,1.1,3.6,79,0.00,,,0.08,WUHU216HW,2013-01-15 18:41:00,
2013-01-15 13:46:00,38.9,33.3,30.28,SE,135,2.0,3.1,80,0.00,,,0.08,WUHU216HW,2013-01-15 18:46:00,
2013-01-15 13:51:00,39.1,33.5,30.28,East,90,1.1,2.5,80,0.00,,,0.08,WUHU216HW,2013-01-15 18:51:00,
2013-01-15 13:56:00,39.2,33.7,30.30,SE,135,0.0,2.5,80,0.00,,,0.08,WUHU216HW,2013-01-15 18:56:00,
2013-01-15 14:01:00,39.1,33.1,30.30,NE,45,0.4,1.1,79,0.00,,,0.08,WUHU216HW,2013-01-15 19:01:00,
2013-01-15 14:06:00,39.1,33.5,30.29,ENE,68,0.7,0.9,80,0.00,,,0.08,WUHU216HW,2013-01-15 19:06:00,
2013-01-15 14:11:00,38.9,32.9,30.29,NE,45,0.4,1.6,79,0.00,,,0.08,WUHU216HW,2013-01-15 19:11:00,
2013-01-15 14:16:00,39.1,33.1,30.29,North,0,0.2,1.6,79,0.00,,,0.08,WUHU216HW,2013-01-15 19:16:00,
2013-01-15 14:21:00,39.1,33.5,30.28,ESE,113,1.1,1.3,80,0.00,,,0.08,WUHU216HW,2013-01-15 19:21:00,
2013-01-15 14:26:00,39.1,33.1,30.27,ESE,113,1.1,1.6,79,0.00,,,0.08,WUHU216HW,2013-01-15 19:26:00,
2013-01-15 14:31:00,39.1,33.1,30.27,SE,135,1.8,2.7,79,0.00,,,0.08,WUHU216HW,2013-01-15 19:31:00,
2013-01-15 14:36:00,39.1,33.5,30.28,SE,135,1.1,2.7,80,0.00,,,0.08,WUHU216HW,2013-01-15 19:36:00,
2013-01-15 14:41:00,38.9,33.3,30.26,ESE,113,2.7,2.9,80,0.00,,,0.08,WUHU216HW,2013-01-15 19:41:00,
2013-01-15 14:46:00,38.9,32.9,30.29,WSW,248,0.0,2.9,79,0.00,,,0.08,WUHU216HW,2013-01-15 19:46:00,
2013-01-15 14:51:00,38.9,32.9,30.28,ESE,113,0.7,2.9,79,0.00,,,0.08,WUHU216HW,2013-01-15 19:51:00,
2013-01-15 14:56:00,38.7,33.1,30.29,SE,135,0.4,1.1,80,0.00,,,0.08,WUHU216HW,2013-01-15 19:56:00,
2013-01-15 15:01:00,38.7,33.1,30.29,SE,135,0.4,1.1,80,0.00,,,0.08,WUHU216HW,2013-01-15 20:01:00,
2013-01-15 15:06:00,38.5,32.9,30.30,SE,135,0.4,0.7,80,0.00,,,0.08,WUHU216HW,2013-01-15 20:06:00,
2013-01-15 15:11:00,38.5,32.6,30.29,ENE,68,0.2,1.1,79,0.00,,,0.08,WUHU216HW,2013-01-15 20:11:00,
2013-01-15 15:16:00,38.5,33.2,30.29,SE,135,1.3,1.6,81,0.00,,,0.08,WUHU216HW,2013-01-15 20:16:00,
2013-01-15 15:21:00,38.3,33.7,30.30,SE,135,1.3,1.6,83,0.00,,,0.08,WUHU216HW,2013-01-15 20:21:00,
2013-01-15 15:26:00,38.2,33.8,30.30,South,180,0.4,1.8,84,0.00,,,0.08,WUHU216HW,2013-01-15 20:26:00,
2013-01-15 15:31:00,38.2,33.8,30.30,SSE,158,0.2,1.8,84,0.00,,,0.08,WUHU216HW,2013-01-15 20:31:00,
2013-01-15 15:36:00,38.2,33.8,30.30,SE,135,0.4,1.1,84,0.00,,,0.08,WUHU216HW,2013-01-15 20:36:00,
2013-01-15 15:41:00,38.2,33.8,30.30,SE,135,0.0,1.1,84,0.00,,,0.08,WUHU216HW,2013-01-15 20:41:00,
2013-01-15 15:46:00,38.2,33.8,30.30,SSW,203,0.0,0.7,84,0.00,,,0.08,WUHU216HW,2013-01-15 20:46:00,
2013-01-15 15:51:00,38.2,33.8,30.31,SW,225,0.4,1.1,84,0.00,,,0.08,WUHU216HW,2013-01-15 20:51:00,
2013-01-15 15:56:00,38.2,33.8,30.30,SE,135,0.2,1.1,84,0.00,,,0.08,WUHU216HW,2013-01-15 20:56:00,
2013-01-15 16:01:00,38.2,34.0,30.29,ESE,113,0.9,1.1,85,0.00,,,0.08,WUHU216HW,2013-01-15 21:01:00,
2013-01-15 16:06:00,38.2,34.0,30.28,SE,135,0.9,1.1,85,0.00,,,0.08,WUHU216HW,2013-01-15 21:06:00,
2013-01-15 16:11:00,38.2,34.3,30.28,SE,135,1.1,1.8,86,0.00,,,0.08,WUHU216HW,2013-01-15 21:11:00,
2013-01-15 16:16:00,38.2,34.3,30.28,ESE,113,1.1,1.8,86,0.00,,,0.08,WUHU216HW,2013-01-15 21:16:00,
2013-01-15 16:21:00,38.0,34.1,30.28,ESE,113,2.0,3.1,86,0.00,,,0.08,WUHU216HW,2013-01-15 21:21:00,
2013-01-15 16:26:00,38.0,34.1,30.27,SSE,158,0.4,3.1,86,0.00,,,0.08,WUHU216HW,2013-01-15 21:26:00,
2013-01-15 16:31:00,38.0,34.1,30.27,SE,135,1.1,2.7,86,0.00,,,0.08,WUHU216HW,2013-01-15 21:31:00,
2013-01-15 16:36:00,37.8,33.9,30.26,ESE,113,0.4,1.6,86,0.00,,,0.08,WUHU216HW,2013-01-15 21:36:00,
2013-01-15 16:41:00,37.8,33.9,30.26,East,90,0.0,1.6,86,0.00,,,0.08,WUHU216HW,2013-01-15 21:41:00,
2013-01-15 16:46:00,37.8,33.9,30.27,SE,135,0.9,0.9,86,0.00,,,0.08,WUHU216HW,2013-01-15 21:46:00,
2013-01-15 16:51:00,37.8,33.9,30.27,SE,135,0.0,0.9,86,0.00,,,0.08,WUHU216HW,2013-01-15 21:51:00,
2013-01-15 16:56:00,37.8,33.9,30.28,West,270,0.9,0.9,86,0.00,,,0.08,WUHU216HW,2013-01-15 21:56:00,
2013-01-15 17:01:00,37.8,33.9,30.27,West,270,0.0,1.8,86,0.00,,,0.08,WUHU216HW,2013-01-15 22:01:00,
2013-01-15 17:06:00,37.8,34.2,30.26,ESE,113,1.6,1.8,87,0.00,,,0.08,WUHU216HW,2013-01-15 22:06:00,
2013-01-15 17:11:00,37.8,34.2,30.28,East,90,0.0,1.8,87,0.00,,,0.08,WUHU216HW,2013-01-15 22:11:00,
2013-01-15 17:16:00,37.8,34.2,30.29,WNW,293,1.8,1.8,87,0.00,,,0.08,WUHU216HW,2013-01-15 22:16:00,
2013-01-15 17:21:00,37.8,34.2,30.30,West,270,0.4,1.8,87,0.00,,,0.08,WUHU216HW,2013-01-15 22:21:00,
2013-01-15 17:26:00,37.8,34.2,30.30,NNE,23,0.4,2.5,87,0.00,,,0.08,WUHU216HW,2013-01-15 22:26:00,
2013-01-15 17:31:00,37.8,34.2,30.30,NW,315,1.8,2.5,87,0.00,,,0.08,WUHU216HW,2013-01-15 22:31:00,
2013-01-15 17:36:00,37.8,34.2,30.30,North,0,1.1,1.8,87,0.00,,,0.08,WUHU216HW,2013-01-15 22:36:00,
2013-01-15 17:41:00,37.8,34.2,30.29,NNE,23,0.7,2.2,87,0.00,,,0.08,WUHU216HW,2013-01-15 22:41:00,
2013-01-15 17:46:00,37.6,34.0,30.30,NNE,23,1.1,2.2,87,0.00,,,0.08,WUHU216HW,2013-01-15 22:46:00,
2013-01-15 17:51:00,37.6,34.0,30.29,ENE,68,0.4,1.6,87,0.00,,,0.08,WUHU216HW,2013-01-15 22:51:00,
2013-01-15 17:56:00,37.6,34.4,30.29,NE,45,2.5,2.5,88,0.00,,,0.08,WUHU216HW,2013-01-15 22:56:00,
2013-01-15 18:01:00,37.6,34.4,30.28,ENE,68,1.8,3.4,88,0.00,,,0.08,WUHU216HW,2013-01-15 23:01:00,
2013-01-15 18:06:00,37.4,34.5,30.28,NE,45,2.2,3.4,89,0.00,,,0.08,WUHU216HW,2013-01-15 23:06:00,
2013-01-15 18:11:00,37.3,34.6,30.27,NE,45,1.8,3.4,90,0.00,,,0.08,WUHU216HW,2013-01-15 23:11:00,
2013-01-15 18:16:00,37.1,34.4,30.27,ENE,68,2.0,3.4,90,0.00,,,0.08,WUHU216HW,2013-01-15 23:16:00,
2013-01-15 18:21:00,37.1,34.9,30.28,NE,45,1.3,3.4,92,0.00,,,0.08,WUHU216HW,2013-01-15 23:21:00,
2013-01-15 18:26:00,37.1,34.9,30.28,ENE,68,3.1,3.6,92,0.01,,,0.09,WUHU216HW,2013-01-15 23:26:00,
2013-01-15 18:31:00,36.9,34.7,30.29,North,0,0.7,3.6,92,0.01,,,0.09,WUHU216HW,2013-01-15 23:31:00,
2013-01-15 18:36:00,36.9,34.7,30.29,NNE,23,0.9,3.4,92,0.01,,,0.09,WUHU216HW,2013-01-15 23:36:00,
2013-01-15 18:41:00,36.9,34.7,30.29,NE,45,4.0,4.0,92,0.02,,,0.10,WUHU216HW,2013-01-15 23:41:00,
2013-01-15 18:46:00,36.7,34.6,30.30,NNE,23,3.1,4.0,92,0.02,,,0.10,WUHU216HW,2013-01-15 23:46:00,
2013-01-15 18:51:00,36.7,34.6,30.30,NE,45,2.5,4.0,92,0.03,,,0.11,WUHU216HW,2013-01-15 23:51:00,
2013-01-15 18:56:00,36.7,34.6,30.30,NE,45,1.6,3.8,92,0.04,,,0.12,WUHU216HW,2013-01-15 23:56:00,
2013-01-15 19:01:00,36.7,34.6,30.30,NE,45,1.8,2.7,92,0.04,,,0.12,WUHU216HW,2013-01-16 00:01:00,
2013-01-15 19:06:00,36.7,34.6,30.30,NE,45,1.6,2.7,92,0.06,,,0.14,WUHU216HW,2013-01-16 00:06:00,
2013-01-15 19:11:00,36.5,34.4,30.30,NNE,23,1.3,2.5,92,0.07,,,0.15,WUHU216HW,2013-01-16 00:11:00,
2013-01-15 19:16:00,36.5,34.4,30.30,North,0,1.1,2.0,92,0.08,,,0.16,WUHU216HW,2013-01-16 00:16:00,
2013-01-15 19:21:00,36.5,34.4,30.30,North,0,0.2,2.0,92,0.08,,,0.17,WUHU216HW,2013-01-16 00:21:00,
2013-01-15 19:26:00,36.5,34.4,30.29,NNE,23,1.1,2.0,92,0.09,,,0.18,WUHU216HW,2013-01-16 00:26:00,
2013-01-15 19:31:00,36.5,34.4,30.29,NNE,23,0.4,1.8,92,0.10,,,0.19,WUHU216HW,2013-01-16 00:31:00,
2013-01-15 19:36:00,36.5,34.4,30.29,NNE,23,1.6,2.2,92,0.10,,,0.20,WUHU216HW,2013-01-16 00:36:00,
2013-01-15 19:41:00,36.5,34.4,30.28,NE,45,1.3,2.2,92,0.11,,,0.21,WUHU216HW,2013-01-16 00:41:00,
2013-01-15 19:46:00,36.5,34.4,30.28,NE,45,2.7,2.7,92,0.12,,,0.22,WUHU216HW,2013-01-16 00:46:00,
2013-01-15 19:51:00,36.4,34.2,30.28,ENE,68,3.6,3.6,92,0.12,,,0.23,WUHU216HW,2013-01-16 00:51:00,
2013-01-15 19:56:00,36.4,34.2,30.28,ENE,68,2.5,3.6,92,0.11,,,0.23,WUHU216HW,2013-01-16 00:56:00,
2013-01-15 20:01:00,36.4,34.2,30.27,NE,45,2.5,3.6,92,0.11,,,0.24,WUHU216HW,2013-01-16 01:01:00,
2013-01-15 20:06:00,36.4,34.2,30.27,NE,45,1.8,2.9,92,0.10,,,0.24,WUHU216HW,2013-01-16 01:06:00,
2013-01-15 20:11:00,36.4,34.2,30.27,NNE,23,2.0,4.5,92,0.10,,,0.25,WUHU216HW,2013-01-16 01:11:00,
2013-01-15 20:16:00,36.4,34.2,30.27,North,0,3.8,4.5,92,0.09,,,0.26,WUHU216HW,2013-01-16 01:16:00,
2013-01-15 20:21:00,36.2,34.0,30.27,NNE,23,1.1,4.0,92,0.09,,,0.27,WUHU216HW,2013-01-16 01:21:00,
2013-01-15 20:26:00,36.2,34.0,30.27,NE,45,0.2,4.0,92,0.08,,,0.27,WUHU216HW,2013-01-16 01:26:00,
2013-01-15 20:31:00,36.2,34.0,30.27,North,0,1.6,2.2,92,0.09,,,0.28,WUHU216HW,2013-01-16 01:31:00,
2013-01-15 20:36:00,36.0,33.8,30.27,NE,45,2.9,4.0,92,0.07,,,0.28,WUHU216HW,2013-01-16 01:36:00,
2013-01-15 20:41:00,35.8,33.4,30.27,ENE,68,2.2,4.0,91,0.07,,,0.29,WUHU216HW,2013-01-16 01:41:00,
2013-01-15 20:46:00,35.8,33.7,30.27,NE,45,4.0,4.0,92,0.09,,,0.31,WUHU216HW,2013-01-16 01:46:00,
2013-01-15 20:51:00,35.6,33.5,30.26,NE,45,2.0,4.7,92,0.09,,,0.32,WUHU216HW,2013-01-16 01:51:00,
2013-01-15 20:56:00,35.6,33.5,30.26,ENE,68,3.8,4.7,92,0.09,,,0.32,WUHU216HW,2013-01-16 01:56:00,
2013-01-15 21:01:00,35.5,33.0,30.26,NE,45,3.4,5.4,91,0.09,,,0.33,WUHU216HW,2013-01-16 02:01:00,
2013-01-15 21:06:00,35.3,33.1,30.26,NE,45,1.3,5.4,92,0.09,,,0.34,WUHU216HW,2013-01-16 02:06:00,
2013-01-15 21:11:00,35.3,33.1,30.26,North,0,3.1,5.1,92,0.09,,,0.34,WUHU216HW,2013-01-16 02:11:00,
2013-01-15 21:16:00,35.1,32.9,30.25,NE,45,4.0,4.9,92,0.09,,,0.35,WUHU216HW,2013-01-16 02:16:00,
2013-01-15 21:21:00,35.1,32.9,30.24,NE,45,5.6,6.9,92,0.09,,,0.36,WUHU216HW,2013-01-16 02:21:00,
2013-01-15 21:26:00,34.9,32.8,30.24,North,0,2.5,6.9,92,0.09,,,0.36,WUHU216HW,2013-01-16 02:26:00,
2013-01-15 21:31:00,34.9,32.8,30.25,NNE,23,2.7,6.5,92,0.09,,,0.37,WUHU216HW,2013-01-16 02:31:00,
2013-01-15 21:36:00,34.9,32.8,30.24,NE,45,3.4,5.6,92,0.09,,,0.38,WUHU216HW,2013-01-16 02:36:00,
2013-01-15 21:41:00,34.7,32.6,30.24,ENE,68,3.8,5.6,92,0.08,,,0.38,WUHU216HW,2013-01-16 02:41:00,
2013-01-15 21:46:00,34.7,32.9,30.24,NE,45,4.5,5.4,93,0.08,,,0.39,WUHU216HW,2013-01-16 02:46:00,
2013-01-15 21:51:00,34.7,32.9,30.24,NNE,23,5.4,5.4,93,0.07,,,0.39,WUHU216HW,2013-01-16 02:51:00,
2013-01-15 21:56:00,34.7,32.9,30.24,NNE,23,2.0,5.4,93,0.07,,,0.40,WUHU216HW,2013-01-16 02:56:00,
2013-01-15 22:01:00,34.7,32.9,30.24,NE,45,3.1,5.4,93,0.08,,,0.41,WUHU216HW,2013-01-16 03:01:00,
2013-01-15 22:06:00,34.7,32.9,30.23,North,0,6.0,6.0,93,0.08,,,0.42,WUHU216HW,2013-01-16 03:06:00,
2013-01-15 22:11:00,34.6,32.7,30.24,North,0,2.5,6.0,93,0.07,,,0.42,WUHU216HW,2013-01-16 03:11:00,
2013-01-15 22:16:00,34.6,32.7,30.24,NNE,23,2.2,6.0,93,0.08,,,0.44,WUHU216HW,2013-01-16 03:16:00,
2013-01-15 22:21:00,34.6,32.7,30.24,North,0,2.5,4.7,93,0.08,,,0.44,WUHU216HW,2013-01-16 03:21:00,
2013-01-15 22:26:00,34.6,32.7,30.24,NNE,23,2.0,4.7,93,0.08,,,0.46,WUHU216HW,2013-01-16 03:26:00,
2013-01-15 22:31:00,34.6,32.7,30.24,NNE,23,2.9,3.6,93,0.08,,,0.46,WUHU216HW,2013-01-16 03:31:00,
2013-01-15 22:36:00,34.6,32.7,30.24,NE,45,2.7,4.0,93,0.08,,,0.46,WUHU216HW,2013-01-16 03:36:00,
2013-01-15 22:41:00,34.6,32.7,30.23,North,0,3.4,5.1,93,0.08,,,0.46,WUHU216HW,2013-01-16 03:41:00,
2013-01-15 22:46:00,34.6,32.7,30.23,NE,45,1.1,5.1,93,0.08,,,0.48,WUHU216HW,2013-01-16 03:46:00,
2013-01-15 22:51:00,34.6,32.7,30.22,North,0,3.4,4.7,93,0.08,,,0.48,WUHU216HW,2013-01-16 03:51:00,
2013-01-15 22:56:00,34.6,32.7,30.22,NNE,23,2.5,4.3,93,0.08,,,0.48,WUHU216HW,2013-01-16 03:56:00,
2013-01-15 23:01:00,34.6,32.7,30.22,ENE,68,3.8,3.8,93,0.08,,,0.49,WUHU216HW,2013-01-16 04:01:00,
2013-01-15 23:06:00,34.6,32.4,30.21,NE,45,3.4,6.3,92,0.07,,,0.49,WUHU216HW,2013-01-16 04:06:00,
2013-01-15 23:11:00,34.4,32.5,30.21,ENE,68,2.9,6.3,93,0.07,,,0.51,WUHU216HW,2013-01-16 04:11:00,
2013-01-15 23:16:00,34.4,32.5,30.20,NE,45,2.9,4.5,93,0.07,,,0.51,WUHU216HW,2013-01-16 04:16:00,
2013-01-15 23:21:00,34.6,32.7,30.20,NE,45,2.2,4.5,93,0.07,,,0.51,WUHU216HW,2013-01-16 04:21:00,
2013-01-15 23:26:00,34.6,32.7,30.20,ENE,68,3.6,4.5,93,0.07,,,0.53,WUHU216HW,2013-01-16 04:26:00,
2013-01-15 23:31:00,34.4,32.5,30.20,NE,45,2.9,4.5,93,0.08,,,0.53,WUHU216HW,2013-01-16 04:31:00,
2013-01-15 23:36:00,34.2,32.3,30.20,North,0,3.6,4.7,93,0.07,,,0.53,WUHU216HW,2013-01-16 04:36:00,
2013-01-15 23:41:00,34.2,32.3,30.20,NNE,23,1.6,5.8,93,0.07,,,0.55,WUHU216HW,2013-01-16 04:41:00,
2013-01-15 23:46:00,34.2,32.3,30.20,NNE,23,2.9,5.8,93,0.09,,,0.57,WUHU216HW,2013-01-16 04:46:00,
2013-01-15 23:51:00,34.2,32.3,30.20,NE,45,2.2,4.3,93,0.10,,,0.58,WUHU216HW,2013-01-16 04:51:00,
2013-01-15 23:56:00,34.0,32.1,30.20,NNE,23,0.9,4.0,93,0.10,,,0.59,WUHU216HW,2013-01-16 04:56:00,